Pagrindinis puslapis
METAR-TAF:

METAR-TAF

Oro uostai :

Ronebis, Švedija

platuma: 56-16N, ilguma: 015-17E, Aukštis: 58 m

Dabartinis oras

Ataskaita buvo paskelbta 33 minutes, ne 12:50 UTC
Vėjas 9 kt iš Pietų/Pietvakarių
Temperatūra 6°C
Drėgmė 93%
Slėgis 1005 hPa
Matomumas 10 km arba daugiau
Su prošvaistėmis ne aukštis 1000 ft

METAR: ESDF 161250Z 21009KT 9999 BKN010 06/05 Q1005

Laikas: 14:23 (13:23 UTC)

Prognozė

Ataskaita buvo paskelbta 1 valandą ir 13 minutes, ne 12:10 UTC
Prognozė galioja nuo 16 metu 12 UTC su 16 metu 21 UTC
Vėjas 8 kt iš Pietvakarių
Matomumas 10 km arba daugiau
Su prošvaistėmis ne aukštis 2000 ft
Tikimybė 40%
nuo 16 metu 12 UTC su 16 metu 18 UTC
Su prošvaistėmis ne aukštis 800 ft
Tikimybė 40%
nuo 16 metu 18 UTC su 16 metu 21 UTC
Matomumas: 4000 m
Su prošvaistėmis ne aukštis 600 ft
rūkana

TAF: ESDF 161210Z 1612/1621 23008KT 9999 BKN020 PROB40 1612/1618 BKN008 PROB40 1618/1621 4000 BR BKN006 RMK MIL

Orai ataskaitas ir orų prognozės (METAR, TAF).

turimą stotys yra geltonos ir raudonos taškus žemėlapyje.

Perkelti pele per norėdami pamatyti stoties vardą.

Tada spustelėkite, norėdami matyti oro stebėjimo ir prognozės.

Norėdami pakeisti žemėlapį: spustelėkite ant žalios mygtukų su juodo kryžiaus žemyn,; žalią mygtuką su brūkšneliu, jei norite nutolinti; arba žalių rodyklių gretimoms žemėlapius.


METAR-TAF: